Time;durP1;ratioP1;P1;durP2;ratioP2;P2;SDS_P1;SDS_P2;PMS_P1;PMS_P2;Temp;Humidity;BMP_temperature;BMP_pressure;BME280_temperature;BME280_humidity;BME280_pressure;Samples;Min_cycle;Max_cycle;Signal;HPM_P1;HPM_P2
2022/07/29 00:00:07;;;;;;;14.10;5.32;;;;;;;24.35;100.00;100348.38;4988686;28;20043;-86
2022/07/29 00:02:48;;;;;;;5.68;3.72;;;;;;;24.30;95.70;100349.13;4991138;28;20492;-86
2022/07/29 00:05:14;;;;;;;7.25;3.72;;;;;;;24.34;95.36;100347.56;4971454;29;20071;-86
2022/07/29 00:07:53;;;;;;;5.90;3.30;;;;;;;24.33;94.41;100348.63;4961306;29;20458;-86
2022/07/29 00:10:22;;;;;;;5.63;3.50;;;;;;;24.30;95.08;100351.03;4977238;29;20047;-86
2022/07/29 00:15:43;;;;;;;6.97;3.63;;;;;;;24.44;93.74;100352.25;4976601;28;20050;-86
2022/07/29 00:18:18;;;;;;;7.80;3.65;;;;;;;24.36;94.33;100342.69;4977904;29;20039;-86
2022/07/29 00:20:46;;;;;;;8.68;3.80;;;;;;;24.19;96.22;100337.38;4979015;28;20032;-86
2022/07/29 00:23:17;;;;;;;7.72;3.78;;;;;;;24.01;98.18;100337.72;5210136;23;20035;-85
2022/07/29 00:25:54;;;;;;;11.30;3.78;;;;;;;23.94;99.50;100345.22;4998446;28;20110;-86
2022/07/29 00:28:23;;;;;;;8.35;3.95;;;;;;;23.99;99.73;100342.59;5052692;23;20057;-85
2022/07/29 00:31:04;;;;;;;18.05;4.28;;;;;;;23.90;100.00;100346.78;5000479;28;20031;-86
2022/07/29 00:33:44;;;;;;;10.52;4.30;;;;;;;24.07;99.54;100341.28;5015535;28;20038;-86
2022/07/29 00:36:15;;;;;;;11.80;5.15;;;;;;;24.11;99.25;100345.94;5014186;28;20037;-88
2022/07/29 00:38:53;;;;;;;10.05;5.28;;;;;;;24.03;99.46;100340.97;4980101;28;20468;-85
2022/07/29 00:41:25;;;;;;;8.77;5.25;;;;;;;23.96;99.06;100340.34;5000899;28;20049;-87
2022/07/29 00:43:57;;;;;;;10.13;4.65;;;;;;;23.85;100.00;100338.63;5011826;28;20149;-88
2022/07/29 00:46:40;;;;;;;8.32;4.15;;;;;;;23.90;99.32;100325.13;5008242;28;20041;-90
2022/07/29 00:49:22;;;;;;;6.50;3.88;;;;;;;23.91;96.09;100326.78;5007456;28;20038;-87
2022/07/29 00:51:57;;;;;;;5.57;3.22;;;;;;;23.95;95.86;100317.09;4997454;28;20042;-87
2022/07/29 00:54:42;;;;;;;6.30;3.58;;;;;;;23.93;97.40;100321.91;5001532;28;20113;-85
2022/07/29 00:57:09;;;;;;;8.90;4.07;;;;;;;23.87;99.13;100319.41;4995477;28;20057;-88
2022/07/29 00:59:51;;;;;;;6.15;3.90;;;;;;;23.92;98.73;100317.59;5002341;28;20035;-89
2022/07/29 01:02:16;;;;;;;11.52;4.72;;;;;;;23.91;99.56;100324.06;4992749;28;20073;-88
2022/07/29 01:04:51;;;;;;;7.93;4.28;;;;;;;23.96;99.33;100334.16;5010534;28;20014;-86
2022/07/29 01:07:25;;;;;;;7.82;4.05;;;;;;;23.88;98.70;100338.13;5011058;28;20034;-87
2022/07/29 01:10:01;;;;;;;6.82;3.38;;;;;;;23.83;97.76;100335.34;4989008;28;20073;-86
2022/07/29 01:12:43;;;;;;;6.57;3.17;;;;;;;23.79;95.64;100339.63;5008963;28;20053;-87
2022/07/29 01:15:26;;;;;;;6.00;2.75;;;;;;;23.85;93.87;100332.38;5008469;28;20049;-86
2022/07/29 01:18:14;;;;;;;3.97;2.22;;;;;;;23.92;92.58;100328.41;4998010;28;20053;-86
2022/07/29 01:21:26;;;;;;;7.18;2.78;;;;;;;23.71;93.78;100348.19;5000048;28;20488;-86
2022/07/29 01:24:10;;;;;;;8.02;3.45;;;;;;;23.56;97.40;100343.44;5001102;28;20058;-84
2022/07/29 01:26:57;;;;;;;5.88;3.13;;;;;;;23.62;97.83;100339.72;5013665;28;20034;-86
2022/07/29 01:29:38;;;;;;;10.55;3.38;;;;;;;23.65;98.02;100339.19;5013538;28;20104;-88
2022/07/29 01:32:29;;;;;;;11.20;3.65;;;;;;;23.58;99.54;100348.56;5010693;28;20058;-89
2022/07/29 01:35:18;;;;;;;7.20;3.33;;;;;;;23.51;100.00;100337.09;5013732;28;20105;-86
2022/07/29 01:37:58;;;;;;;12.45;4.35;;;;;;;23.34;100.00;100330.91;5014631;28;20034;-88
2022/07/29 01:40:49;;;;;;;7.82;3.72;;;;;;;23.31;100.00;100316.00;4998107;28;20114;-86
2022/07/29 01:43:43;;;;;;;5.93;3.75;;;;;;;23.41;100.00;100320.75;5010064;23;20054;-87
2022/07/29 01:46:45;;;;;;;7.40;3.33;;;;;;;23.52;100.00;100328.75;4985104;28;20055;-89
2022/07/29 01:49:31;;;;;;;4.50;3.00;;;;;;;23.51;99.03;100316.28;4986089;28;20070;-86
2022/07/29 01:52:13;;;;;;;5.75;3.03;;;;;;;23.60;99.14;100328.31;5009642;23;20042;-87
2022/07/29 01:55:16;;;;;;;9.73;3.50;;;;;;;23.46;100.00;100332.47;4995619;23;20057;-87
2022/07/29 01:57:51;;;;;;;9.38;3.72;;;;;;;23.43;100.00;100330.25;4972481;29;20090;-85
2022/07/29 02:00:29;;;;;;;6.03;3.35;;;;;;;23.35;99.48;100327.13;4958632;29;20028;-85
2022/07/29 02:02:56;;;;;;;4.35;3.10;;;;;;;23.24;99.99;100314.53;4957566;29;20043;-87
2022/07/29 02:11:21;;;;;;;5.20;3.43;;;;;;;23.50;100.00;100309.22;5092402;23;20051;-86
2022/07/29 02:14:03;;;;;;;7.45;3.08;;;;;;;23.56;99.44;100310.13;4993006;28;20038;-88
2022/07/29 02:16:41;;;;;;;5.20;2.80;;;;;;;23.51;99.23;100307.34;4993338;28;20428;-86
2022/07/29 02:19:23;;;;;;;8.52;3.20;;;;;;;23.57;100.00;100309.03;4993481;28;20122;-87
2022/07/29 02:21:53;;;;;;;7.18;3.22;;;;;;;23.43;100.00;100310.50;4977692;28;20045;-87
2022/07/29 02:24:23;;;;;;;8.45;3.05;;;;;;;23.38;100.00;100310.41;4975577;28;20045;-84
2022/07/29 02:26:55;;;;;;;5.47;2.80;;;;;;;23.27;99.84;100306.75;4975570;28;20050;-87
2022/07/29 02:29:23;;;;;;;;;;;;;;;23.20;100.00;100305.31;4992837;28;20051;-86
2022/07/29 02:31:57;;;;;;;5.75;4.00;;;;;;;23.20;100.00;100305.31;4992138;28;19914;-84
2022/07/29 02:34:48;;;;;;;5.50;3.53;;;;;;;23.15;100.00;100304.16;4991181;28;20408;-86
2022/07/29 02:37:18;;;;;;;6.70;3.47;;;;;;;23.30;100.00;100308.16;4992856;28;20043;-88
2022/07/29 02:39:53;;;;;;;4.00;3.47;;;;;;;23.31;100.00;100297.06;4991780;28;20046;-85
2022/07/29 02:42:49;;;;;;;5.82;3.60;;;;;;;23.36;100.00;100293.63;4993596;28;20043;-86
2022/07/29 02:45:18;;;;;;;11.45;4.28;;;;;;;23.50;100.00;100297.59;4992834;28;20039;-85
2022/07/29 02:47:52;;;;;;;8.85;4.40;;;;;;;23.23;100.00;100296.69;4959691;23;20027;-87
2022/07/29 02:50:38;;;;;;;9.60;4.97;;;;;;;23.05;100.00;100304.03;4989405;23;20152;-85
2022/07/29 02:53:42;;;;;;;8.38;5.68;;;;;;;22.90;100.00;100303.00;4998314;28;20039;-85
2022/07/29 02:56:25;;;;;;;11.98;6.60;;;;;;;22.68;100.00;100294.81;4992039;28;20476;-89
2022/07/29 02:59:09;;;;;;;11.48;6.50;;;;;;;22.63;100.00;100303.63;4963865;28;20055;-85
2022/07/29 03:01:55;;;;;;;9.30;6.50;;;;;;;22.58;100.00;100294.63;4994101;28;20082;-84
2022/07/29 03:04:25;;;;;;;15.93;7.38;;;;;;;22.45;100.00;100301.16;4992865;28;20034;-89
2022/07/29 03:06:59;;;;;;;14.35;9.05;;;;;;;22.36;100.00;100308.03;4955806;28;20114;-88
2022/07/29 03:09:32;;;;;;;18.02;9.75;;;;;;;22.25;100.00;100305.41;4986507;28;20069;-89
2022/07/29 03:12:22;;;;;;;18.65;12.13;;;;;;;22.24;100.00;100311.88;5023768;23;20078;-85
2022/07/29 03:14:49;;;;;;;16.77;11.32;;;;;;;22.28;100.00;100310.31;4992828;28;20109;-86
2022/07/29 03:17:22;;;;;;;21.63;12.77;;;;;;;22.33;100.00;100307.72;5012650;23;20105;-88
2022/07/29 03:19:52;;;;;;;14.77;11.70;;;;;;;22.32;100.00;100316.88;4975338;28;20186;-88
2022/07/29 03:22:24;;;;;;;19.45;10.95;;;;;;;22.37;100.00;100319.66;4992288;28;20022;-88
2022/07/29 03:24:56;;;;;;;;;;;;;;;22.39;100.00;100328.34;4976510;28;20038;-88
2022/07/29 03:27:25;;;;;;;14.40;10.15;;;;;;;22.35;100.00;100333.41;4992312;28;20287;-88
2022/07/29 03:30:03;;;;;;;14.60;9.88;;;;;;;22.45;100.00;100321.94;4992330;28;20174;-85
2022/07/29 03:32:33;;;;;;;18.08;9.73;;;;;;;22.46;100.00;100329.00;4990904;28;20033;-87
2022/07/29 03:35:03;;;;;;;16.40;10.27;;;;;;;22.49;100.00;100336.59;4973936;28;20043;-87
2022/07/29 03:37:33;;;;;;;16.88;10.63;;;;;;;22.50;100.00;100325.56;4971715;28;20070;-85
2022/07/29 03:40:03;;;;;;;19.48;14.95;;;;;;;22.50;100.00;100324.75;4995390;28;20046;-85
2022/07/29 03:42:35;;;;;;;23.73;16.23;;;;;;;22.44;100.00;100329.22;4974441;28;20046;-85
2022/07/29 03:45:16;;;;;;;27.42;17.30;;;;;;;22.40;100.00;100324.56;4975001;28;20073;-85
2022/07/29 03:47:53;;;;;;;24.95;18.45;;;;;;;22.40;100.00;100329.97;4973921;28;20057;-86
2022/07/29 03:50:23;;;;;;;29.83;20.20;;;;;;;22.46;100.00;100323.59;4986641;28;20079;-85
2022/07/29 03:53:21;;;;;;;27.33;19.73;;;;;;;22.33;100.00;100324.75;4989002;28;20046;-86
2022/07/29 03:56:01;;;;;;;26.55;19.80;;;;;;;22.24;100.00;100319.97;4990458;28;20103;-87
2022/07/29 03:58:45;;;;;;;28.00;20.52;;;;;;;22.21;100.00;100320.44;4958046;28;20050;-86
2022/07/29 04:01:17;;;;;;;29.13;19.83;;;;;;;22.21;100.00;100325.84;4970366;28;20047;-85
2022/07/29 04:03:45;;;;;;;28.80;19.95;;;;;;;22.19;100.00;100330.66;4976914;28;20055;-85
2022/07/29 04:06:45;;;;;;;26.27;19.10;;;;;;;22.11;100.00;100330.00;5036454;23;20046;-87
2022/07/29 04:09:44;;;;;;;27.15;18.42;;;;;;;22.15;100.00;100325.75;5153601;23;20070;-87
2022/07/29 04:12:25;;;;;;;21.17;16.77;;;;;;;22.08;100.00;100326.97;4990109;28;20031;-87
2022/07/29 04:15:40;;;;;;;19.80;15.48;;;;;;;22.12;100.00;100337.03;4990381;28;20059;-88
2022/07/29 04:18:16;;;;;;;19.17;13.68;;;;;;;22.26;100.00;100328.66;4989754;28;20042;-87
2022/07/29 04:20:41;;;;;;;19.38;13.57;;;;;;;22.42;100.00;100327.84;4991005;28;20106;-88
2022/07/29 04:26:34;;;;;;;18.63;14.65;;;;;;;22.57;100.00;100331.59;3240530;26;20043;-87
2022/07/29 04:29:14;;;;;;;24.73;14.70;;;;;;;22.74;100.00;100331.66;5024040;23;20062;-87
2022/07/29 04:40:22;;;;;;;24.83;19.27;;;;;;;22.45;100.00;100346.25;4989652;28;20053;-85
2022/07/29 04:42:57;;;;;;;30.85;19.60;;;;;;;22.43;100.00;100349.22;4974155;28;20046;-87
2022/07/29 04:45:41;;;;;;;29.45;21.00;;;;;;;22.45;100.00;100359.75;4985268;28;20054;-85
2022/07/29 04:48:44;;;;;;;28.20;20.85;;;;;;;22.67;100.00;100362.63;4974848;28;20066;-85
2022/07/29 04:51:42;;;;;;;28.45;20.95;;;;;;;22.67;100.00;100363.41;4985876;28;20047;-87
2022/07/29 04:54:15;;;;;;;25.92;20.83;;;;;;;22.59;100.00;100361.09;4978187;28;20053;-85
2022/07/29 04:56:46;;;;;;;30.63;21.98;;;;;;;22.47;100.00;100361.16;4971550;28;20051;-85
2022/07/29 04:59:20;;;;;;;28.27;21.42;;;;;;;22.49;100.00;100366.31;5028466;23;20061;-86
2022/07/29 05:01:55;;;;;;;31.55;21.65;;;;;;;22.55;100.00;100376.16;5050805;23;20057;-87
2022/07/29 05:04:33;;;;;;;27.30;21.48;;;;;;;22.64;100.00;100374.66;4958850;28;20059;-87
2022/07/29 05:07:26;;;;;;;29.90;21.83;;;;;;;22.67;100.00;100379.63;5023367;23;20058;-87
2022/07/29 05:10:02;;;;;;;28.45;22.25;;;;;;;22.77;100.00;100377.09;4992072;28;20046;-85
2022/07/29 05:12:30;;;;;;;30.55;23.27;;;;;;;22.78;100.00;100376.03;4996295;28;20045;-85
2022/07/29 05:18:23;;;;;;;35.55;22.02;;;;;;;23.00;100.00;100384.22;2809850;26;20054;-83
2022/07/29 05:20:59;;;;;;;28.35;20.92;;;;;;;23.19;100.00;100391.00;4968110;28;20046;-84
2022/07/29 05:23:34;;;;;;;26.33;19.75;;;;;;;23.30;100.00;100400.09;4994300;28;20049;-83
2022/07/29 05:26:00;;;;;;;30.05;21.90;;;;;;;23.42;100.00;100398.97;4976890;28;20070;-84
2022/07/29 05:28:36;;;;;;;29.73;20.75;;;;;;;23.53;100.00;100399.91;4978727;28;20027;-85
2022/07/29 05:31:11;;;;;;;28.77;21.77;;;;;;;23.53;100.00;100399.91;4994742;28;20039;-84
2022/07/29 05:34:21;;;;;;;29.98;21.05;;;;;;;23.47;100.00;100401.72;4996237;28;20094;-84
2022/07/29 05:36:56;;;;;;;30.90;21.17;;;;;;;23.54;100.00;100412.34;4992298;28;20118;-84
2022/07/29 05:39:53;;;;;;;30.20;21.48;;;;;;;23.57;100.00;100409.16;4979101;28;20101;-85
2022/07/29 05:46:56;;;;;;;29.33;20.40;;;;;;;24.09;100.00;100404.97;4999794;28;20081;-84
2022/07/29 05:49:42;;;;;;;33.90;21.48;;;;;;;24.23;100.00;100407.31;4960365;28;20042;-83
2022/07/29 05:52:42;;;;;;;29.98;20.45;;;;;;;24.33;100.00;100404.72;4994332;28;20023;-84
2022/07/29 05:55:09;;;;;;;30.67;20.02;;;;;;;24.51;100.00;100415.19;4977038;28;20038;-86
2022/07/29 05:57:59;;;;;;;29.80;20.83;;;;;;;24.74;100.00;100420.28;4976272;28;20046;-85
2022/07/29 06:00:25;;;;;;;29.13;20.63;;;;;;;24.94;100.00;100423.19;4976703;28;20480;-84
2022/07/29 06:02:54;;;;;;;28.35;19.02;;;;;;;24.90;100.00;100416.66;4978831;28;20071;-86
2022/07/29 06:05:44;;;;;;;30.33;20.52;;;;;;;24.99;100.00;100428.66;4979781;28;20047;-86
2022/07/29 06:08:16;;;;;;;27.95;21.10;;;;;;;24.98;100.00;100424.31;5047853;23;20047;-85
2022/07/29 06:13:24;;;;;;;29.02;21.33;;;;;;;25.35;100.00;100426.22;4991125;23;20051;-86
2022/07/29 06:15:53;;;;;;;30.70;21.77;;;;;;;25.54;100.00;100432.88;4989494;28;20060;-88
2022/07/29 06:18:22;;;;;;;26.85;18.45;;;;;;;25.65;100.00;100429.94;4999902;28;20074;-88
2022/07/29 06:38:20;;;;;;;22.77;15.13;;;;;;;27.16;100.00;100443.16;4648575;23;20055;-86
2022/07/29 06:44:16;;;;;;;19.98;14.30;;;;;;;29.35;89.50;100438.31;6108779;23;21986;-88
2022/07/29 07:00:32;;;;;;;24.27;14.95;;;;;;;28.29;91.71;100447.25;5058804;23;20051;-84
2022/07/29 07:03:30;;;;;;;20.83;15.40;;;;;;;28.12;92.71;100448.44;4963058;28;20051;-86
2022/07/29 07:08:44;;;;;;;25.15;15.98;;;;;;;28.19;92.70;100448.94;4137421;26;20055;-85
2022/07/29 07:11:45;;;;;;;18.80;14.60;;;;;;;28.52;91.28;100446.56;4983353;28;20118;-85
2022/07/29 07:14:21;;;;;;;22.48;13.77;;;;;;;30.01;83.69;100436.53;4965229;28;20063;-87
2022/07/29 07:19:47;;;;;;;22.15;15.05;;;;;;;29.43;83.65;100448.63;4956682;26;20110;-85
2022/07/29 07:22:34;;;;;;;19.85;12.27;;;;;;;30.77;75.57;100449.97;4952212;28;20042;-85
2022/07/29 07:25:38;;;;;;;18.40;12.05;;;;;;;30.51;76.74;100450.66;4976586;28;20053;-87
2022/07/29 07:28:27;;;;;;;13.93;10.30;;;;;;;29.86;77.59;100444.91;4973792;28;20058;-87
2022/07/29 07:36:24;;;;;;;11.80;8.50;;;;;;;30.72;74.50;100446.50;4713213;26;20043;-86
2022/07/29 07:42:42;;;;;;;11.18;8.25;;;;;;;32.04;68.91;100445.81;5047735;23;20066;-87
2022/07/29 07:53:19;;;;;;;19.67;12.05;;;;;;;32.16;69.02;100432.38;4974565;29;19957;-85
2022/07/29 07:56:06;;;;;;;13.63;9.02;;;;;;;32.70;66.29;100436.13;4975654;29;20037;-88
2022/07/29 07:58:48;;;;;;;19.25;10.73;;;;;;;32.19;67.45;100441.94;4947291;29;20500;-88
2022/07/29 08:01:54;;;;;;;16.88;11.20;;;;;;;31.63;70.43;100423.88;5012017;23;20035;-88
2022/07/29 08:05:23;;;;;;;16.00;10.25;;;;;;;31.59;69.26;100428.31;4997475;28;20047;-88
2022/07/29 08:11:07;;;;;;;22.73;9.48;;;;;;;31.16;69.68;100414.03;5026189;23;20298;-86
2022/07/29 08:13:55;;;;;;;13.10;10.23;;;;;;;31.23;69.58;100414.44;4997484;28;20107;-87
2022/07/29 08:20:10;;;;;;;14.38;9.70;;;;;;;31.57;58.00;100418.78;4991582;28;20026;-85
2022/07/29 08:23:06;;;;;;;14.60;8.95;;;;;;;31.78;56.60;100425.50;4994308;28;20053;-85
2022/07/29 08:25:51;;;;;;;13.00;8.27;;;;;;;31.94;56.56;100429.56;5257770;23;20076;-85
2022/07/29 08:31:59;;;;;;;15.00;9.48;;;;;;;32.55;54.36;100423.53;4993052;28;20058;-85
2022/07/29 08:37:21;;;;;;;;;;;;;;;32.24;55.68;100433.59;5041279;23;20055;-85
2022/07/29 08:39:59;;;;;;;13.75;8.65;;;;;;;32.45;55.72;100429.25;5008519;28;19941;-85
2022/07/29 08:42:40;;;;;;;;;;;;;;;32.64;54.47;100429.16;4954478;28;20054;-85
2022/07/29 08:52:40;;;;;;;10.20;6.57;;;;;;;32.65;52.29;100439.00;5288377;23;20042;-82
2022/07/29 08:55:27;;;;;;;19.27;8.10;;;;;;;33.01;50.94;100425.22;5034955;28;20097;-84
2022/07/29 08:58:42;;;;;;;11.00;7.60;;;;;;;32.73;51.37;100435.50;5013100;28;20034;-85
2022/07/29 09:04:18;;;;;;;14.52;8.30;;;;;;;33.21;51.25;100414.53;5008089;23;20088;-84
2022/07/29 09:07:00;;;;;;;11.70;8.55;;;;;;;33.54;50.78;100408.72;4979506;28;20051;-84
2022/07/29 09:09:59;;;;;;;12.75;9.38;;;;;;;33.38;51.19;100405.56;4936119;28;20051;-86
2022/07/29 09:13:02;;;;;;;15.00;7.95;;;;;;;33.35;51.24;100402.63;5374173;23;20291;-84
2022/07/29 09:30:16;;;;;;;11.82;7.82;;;;;;;33.57;48.10;100399.84;5220425;23;20106;-87
2022/07/29 09:33:00;;;;;;;23.58;6.93;;;;;;;32.98;49.33;100385.44;4955687;28;20036;-87
2022/07/29 09:38:44;;;;;;;8.23;5.88;;;;;;;33.65;47.28;100388.09;4992303;23;20054;-86
2022/07/29 09:47:15;;;;;;;15.40;7.72;;;;;;;32.65;48.87;100384.91;5072483;23;19922;-84
2022/07/29 09:50:01;;;;;;;17.42;8.20;;;;;;;32.26;50.97;100377.31;4900080;29;20052;-87
2022/07/29 09:58:22;;;;;;;8.48;5.97;;;;;;;32.51;49.63;100366.88;5609611;23;20000;-85
2022/07/29 10:01:22;;;;;;;9.10;6.32;;;;;;;32.40;49.10;100362.72;4997802;28;20054;-87
2022/07/29 10:04:15;;;;;;;11.43;5.68;;;;;;;32.26;49.74;100365.53;4980719;28;20055;-89
2022/07/29 10:08:13;;;;;;;8.70;6.50;;;;;;;33.04;47.47;100354.00;5000354;28;20066;-87
2022/07/29 10:11:34;;;;;;;13.55;5.50;;;;;;;33.36;46.82;100352.88;5071149;23;20500;-87
2022/07/29 10:15:17;;;;;;;13.15;6.43;;;;;;;32.97;48.14;100358.31;5080615;23;20061;-86
2022/07/29 10:18:39;;;;;;;6.88;4.60;;;;;;;33.73;46.52;100354.31;4957595;29;20079;-86
2022/07/29 10:21:39;;;;;;;;;;;;;;;;;;;;;
2022/07/29 10:27:39;;;;;;;11.75;6.43;;;;;;;33.63;45.75;100355.44;5448263;23;20114;-88
2022/07/29 10:30:13;;;;;;;;;;;;;;;32.80;48.30;100342.56;5030239;23;20066;-88
2022/07/29 10:46:50;;;;;;;9.20;4.93;;;;;;;34.44;42.67;100335.63;5150827;23;20093;-88
2022/07/29 10:49:36;;;;;;;5.65;3.53;;;;;;;34.77;43.20;100333.97;4990196;28;20050;-89
2022/07/29 10:52:49;;;;;;;7.00;4.00;;;;;;;34.14;42.88;100340.97;4991082;28;20053;-90
2022/07/29 10:59:31;;;;;;;15.68;3.60;;;;;;;34.28;43.53;100333.38;4577569;26;20057;-87
2022/07/29 11:06:15;;;;;;;11.43;5.35;;;;;;;33.80;44.28;100329.09;5015404;23;20057;-86
2022/07/29 11:09:49;;;;;;;10.98;5.38;;;;;;;34.01;44.54;100311.63;4976011;29;20042;-88
2022/07/29 11:16:00;;;;;;;7.43;4.15;;;;;;;34.82;41.96;100306.28;5054123;23;20054;-87
2022/07/29 11:19:20;;;;;;;11.00;4.38;;;;;;;34.37;43.42;100296.78;4995646;28;20046;-88
2022/07/29 11:22:31;;;;;;;6.50;4.38;;;;;;;33.91;44.23;100276.19;4993100;28;20058;-88
2022/07/29 11:25:45;;;;;;;7.35;4.43;;;;;;;33.72;45.15;100283.97;5053169;23;20516;-87
2022/07/29 11:29:34;;;;;;;8.77;4.53;;;;;;;33.58;45.27;100286.00;4994789;28;20119;-85
2022/07/29 11:32:43;;;;;;;12.15;6.25;;;;;;;33.28;45.88;100270.44;4995049;28;20054;-85
2022/07/29 11:35:25;;;;;;;11.10;5.03;;;;;;;32.91;47.06;100266.22;4994557;28;20054;-84
2022/07/29 11:39:05;;;;;;;7.45;3.90;;;;;;;32.76;48.14;100264.69;5237879;23;20555;-86
2022/07/29 11:41:43;;;;;;;5.60;3.65;;;;;;;33.06;47.72;100269.34;4995913;28;20042;-86
2022/07/29 11:58:11;;;;;;;14.40;5.80;;;;;;;32.52;48.56;100247.72;5072711;23;19921;-83
2022/07/29 12:22:06;;;;;;;8.82;3.92;;;;;;;31.78;50.00;100239.13;3923416;26;20388;-83
2022/07/29 12:25:19;;;;;;;6.05;3.45;;;;;;;31.79;50.89;100229.75;5006453;28;20117;-86
2022/07/29 12:31:01;;;;;;;;;;;;;;;31.65;50.33;100237.22;5106553;23;20058;-84
2022/07/29 12:34:01;;;;;;;7.22;3.55;;;;;;;31.63;50.78;100237.53;4992717;28;19918;-82
2022/07/29 12:36:49;;;;;;;6.95;3.25;;;;;;;31.69;50.13;100243.69;4979935;28;20038;-85
2022/07/29 12:39:56;;;;;;;6.32;3.50;;;;;;;31.63;50.03;100251.22;4979143;28;20071;-85
2022/07/29 12:56:59;;;;;;;9.27;4.07;;;;;;;30.66;60.45;100212.38;4529505;26;20061;-84
2022/07/29 12:59:57;;;;;;;11.40;3.50;;;;;;;30.39;66.23;100215.06;5005625;28;20046;-85
2022/07/29 13:15:53;;;;;;;10.13;4.75;;;;;;;29.75;78.31;100211.13;4746006;26;20047;-84
2022/07/29 13:43:50;;;;;;;22.75;8.60;;;;;;;27.90;100.00;100142.84;5013015;23;20216;-82
2022/07/29 13:46:42;;;;;;;15.80;9.02;;;;;;;27.54;100.00;100144.22;5001177;28;20038;-82
2022/07/29 13:54:49;;;;;;;19.35;12.23;;;;;;;27.03;100.00;100168.13;5244933;23;20046;-89
2022/07/29 13:57:22;;;;;;;24.17;11.88;;;;;;;27.01;100.00;100160.25;4998082;28;20046;-89
2022/07/29 13:59:53;;;;;;;24.95;11.60;;;;;;;26.83;100.00;100166.31;4998034;28;20043;-89
2022/07/29 14:02:22;;;;;;;25.50;12.47;;;;;;;26.87;100.00;100159.22;4981857;28;20027;-89
2022/07/29 14:04:48;;;;;;;27.02;12.93;;;;;;;26.86;100.00;100163.03;4957474;28;20047;-91
2022/07/29 14:07:13;;;;;;;19.15;12.82;;;;;;;26.68;100.00;100150.03;4949868;28;20058;-88
2022/07/29 14:09:39;;;;;;;22.98;13.25;;;;;;;26.49;100.00;100135.38;4963233;28;20049;-85
2022/07/29 14:12:05;;;;;;;23.95;13.98;;;;;;;26.30;100.00;100142.50;4979968;28;20058;-88
2022/07/29 14:14:32;;;;;;;38.67;22.65;;;;;;;26.37;100.00;100167.50;4979509;28;20053;-85
2022/07/29 14:17:08;;;;;;;32.42;15.10;;;;;;;26.43;100.00;100166.38;4964020;28;20039;-86
2022/07/29 14:19:41;;;;;;;21.25;13.25;;;;;;;26.44;100.00;100177.00;4979762;28;20054;-88
2022/07/29 14:22:08;;;;;;;21.42;11.23;;;;;;;26.42;100.00;100189.19;4962076;28;20125;-87
2022/07/29 14:24:34;;;;;;;22.33;11.32;;;;;;;26.32;100.00;100219.09;4972941;28;20046;-87
2022/07/29 14:27:03;;;;;;;29.02;10.73;;;;;;;26.10;100.00;100228.34;4977171;28;20039;-85
2022/07/29 14:29:29;;;;;;;27.73;10.27;;;;;;;25.99;100.00;100237.56;4945007;28;20443;-87
2022/07/29 14:31:58;;;;;;;26.30;9.05;;;;;;;25.58;100.00;100246.72;4979366;28;20042;-87
2022/07/29 14:34:24;;;;;;;21.10;7.72;;;;;;;25.09;100.00;100278.78;4981343;28;20038;-89
2022/07/29 14:36:55;;;;;;;;;;;;;;;24.29;100.00;100309.59;4955623;28;20039;-90
2022/07/29 14:39:27;;;;;;;13.63;6.93;;;;;;;24.13;100.00;100314.03;4947722;28;19921;-91
2022/07/29 14:41:52;;;;;;;9.52;5.40;;;;;;;24.41;100.00;100312.94;4973144;28;20090;-88
2022/07/29 14:44:26;;;;;;;20.05;7.05;;;;;;;24.25;100.00;100277.84;4982779;28;20027;-88
2022/07/29 14:46:53;;;;;;;18.88;7.20;;;;;;;24.05;100.00;100257.63;4968324;28;20042;-91
2022/07/29 14:49:24;;;;;;;13.65;5.75;;;;;;;24.08;100.00;100265.22;4984478;28;20049;-89
2022/07/29 14:51:50;;;;;;;14.13;5.35;;;;;;;24.24;100.00;100262.66;4982776;28;20062;-87
2022/07/29 14:54:21;;;;;;;10.70;5.72;;;;;;;24.38;100.00;100272.00;4957609;28;20583;-88
2022/07/29 14:56:56;;;;;;;15.52;6.85;;;;;;;24.04;100.00;100282.22;4958393;28;20129;-86
2022/07/29 14:59:22;;;;;;;15.93;6.50;;;;;;;24.11;100.00;100263.88;4968012;28;20041;-89
2022/07/29 15:01:48;;;;;;;16.27;6.82;;;;;;;24.17;100.00;100228.50;4973417;28;20054;-89
2022/07/29 15:04:19;;;;;;;14.00;6.55;;;;;;;24.44;100.00;100228.44;4976070;28;20046;-90
2022/07/29 15:06:47;;;;;;;14.30;6.38;;;;;;;24.39;100.00;100231.13;4982088;28;20074;-89
2022/07/29 15:09:13;;;;;;;10.60;5.70;;;;;;;24.54;100.00;100216.84;4982325;28;20416;-91
2022/07/29 15:11:48;;;;;;;11.30;5.65;;;;;;;24.71;100.00;100195.84;4971146;28;20035;-90
2022/07/29 15:14:21;;;;;;;13.18;5.68;;;;;;;24.62;100.00;100200.13;4986439;28;20046;-85
2022/07/29 15:16:50;;;;;;;19.23;6.72;;;;;;;24.29;100.00;100235.66;4983371;28;20186;-88
2022/07/29 15:19:16;;;;;;;13.15;6.30;;;;;;;24.12;100.00;100255.56;4986082;28;20038;-91
2022/07/29 15:21:45;;;;;;;13.40;5.53;;;;;;;23.95;100.00;100264.81;4969074;28;20054;-90
2022/07/29 15:24:11;;;;;;;9.93;5.22;;;;;;;23.99;100.00;100276.78;4976863;28;20038;-90
2022/07/29 15:26:37;;;;;;;13.23;5.72;;;;;;;23.84;100.00;100274.72;4978039;28;20046;-89
2022/07/29 15:29:05;;;;;;;13.68;5.22;;;;;;;23.80;100.00;100254.66;4980162;28;20031;-92
2022/07/29 15:31:35;;;;;;;13.73;4.80;;;;;;;23.75;100.00;100273.56;4983382;28;20490;-91
2022/07/29 15:34:08;;;;;;;10.10;4.97;;;;;;;23.76;100.00;100271.66;4966758;28;20074;-90
2022/07/29 15:36:38;;;;;;;8.45;5.07;;;;;;;23.53;100.00;100257.31;4966171;28;20110;-88
2022/07/29 15:39:03;;;;;;;9.73;4.70;;;;;;;23.49;100.00;100231.88;4959170;28;20473;-90
2022/07/29 15:41:29;;;;;;;10.55;5.47;;;;;;;23.79;100.00;100225.97;4974988;28;20037;-87
2022/07/29 15:43:55;;;;;;;9.32;5.75;;;;;;;23.64;100.00;100223.09;4944493;28;20122;-88
2022/07/29 15:49:06;;;;;;;9.10;4.95;;;;;;;24.03;100.00;100204.78;4962146;28;20045;-89
2022/07/29 15:51:32;;;;;;;11.63;5.32;;;;;;;24.27;100.00;100226.94;4977601;28;20034;-90
2022/07/29 15:53:57;;;;;;;7.40;5.05;;;;;;;24.24;100.00;100217.44;4972166;28;20042;-89
2022/07/29 15:56:24;;;;;;;13.35;5.38;;;;;;;24.07;100.00;100206.72;4966317;28;20031;-91
2022/07/29 15:58:50;;;;;;;8.13;4.82;;;;;;;23.85;100.00;100210.59;4975723;28;20031;-89
2022/07/29 16:01:23;;;;;;;13.27;5.40;;;;;;;23.86;100.00;100215.75;4980100;28;20081;-90
2022/07/29 16:03:50;;;;;;;11.32;5.60;;;;;;;23.94;100.00;100207.16;4965943;28;20049;-88
2022/07/29 16:06:19;;;;;;;8.05;5.03;;;;;;;24.11;100.00;100213.25;4971172;28;20050;-90
2022/07/29 16:12:07;;;;;;;8.95;5.18;;;;;;;24.30;100.00;100212.88;4990463;28;20038;-90
2022/07/29 16:14:33;;;;;;;7.93;5.20;;;;;;;24.28;100.00;100213.16;4984984;28;20072;-91
2022/07/29 16:17:07;;;;;;;14.93;5.97;;;;;;;24.43;100.00;100212.44;4983772;28;20039;-89
2022/07/29 16:19:46;;;;;;;10.30;5.57;;;;;;;24.38;100.00;100207.81;4980827;28;20054;-88
2022/07/29 16:22:22;;;;;;;9.57;5.40;;;;;;;24.35;100.00;100199.38;4981389;28;20066;-90
2022/07/29 16:24:50;;;;;;;12.60;5.50;;;;;;;24.34;100.00;100195.84;4985729;28;20039;-89
2022/07/29 16:27:32;;;;;;;11.55;5.35;;;;;;;24.41;100.00;100192.94;4979992;28;20053;-89
2022/07/29 16:30:04;;;;;;;10.43;5.10;;;;;;;24.30;100.00;100180.38;4983379;28;20039;-89
2022/07/29 16:32:42;;;;;;;9.00;5.60;;;;;;;24.33;100.00;100166.34;4997522;28;20054;-88
2022/07/29 16:35:08;;;;;;;11.23;5.97;;;;;;;24.38;100.00;100147.41;4979245;28;20027;-89
2022/07/29 16:37:35;;;;;;;16.20;5.82;;;;;;;24.55;100.00;100139.91;4967599;28;20030;-92
2022/07/29 16:40:06;;;;;;;30.30;15.45;;;;;;;24.50;100.00;100129.03;4984621;28;20468;-88
2022/07/29 16:42:33;;;;;;;24.60;17.85;;;;;;;24.47;100.00;100132.28;4977202;28;20491;-88
2022/07/29 16:45:01;;;;;;;26.17;17.08;;;;;;;24.43;100.00;100120.31;4976340;28;20035;-92